Time;durP1;ratioP1;P1;durP2;ratioP2;P2;SDS_P1;SDS_P2;PMS_P1;PMS_P2;Temp;Humidity;BMP_temperature;BMP_pressure;BME280_temperature;BME280_humidity;BME280_pressure;Samples;Min_cycle;Max_cycle;Signal;HPM_P1;HPM_P2
2023/01/31 00:02:49;;;;;;;11.18;5.15;;;8.00;53.20;;;;;;6123293;29;20169;-65
2023/01/31 00:05:50;;;;;;;11.02;4.32;;;7.90;53.20;;;;;;6191967;28;20031;-67
2023/01/31 00:08:52;;;;;;;19.75;6.07;;;7.90;53.00;;;;;;6144742;28;20558;-66
2023/01/31 00:11:53;;;;;;;12.05;5.25;;;7.90;52.90;;;;;;6146344;28;20468;-66
2023/01/31 00:14:53;;;;;;;16.27;6.93;;;7.90;52.70;;;;;;6162956;28;20088;-68
2023/01/31 00:17:55;;;;;;;13.35;3.95;;;7.90;52.30;;;;;;6246778;28;20037;-67
2023/01/31 00:20:55;;;;;;;7.40;3.38;;;7.90;52.10;;;;;;6171914;28;20035;-68
2023/01/31 00:23:57;;;;;;;10.57;4.97;;;7.90;52.40;;;;;;6122669;29;20042;-65
2023/01/31 00:26:58;;;;;;;14.75;5.93;;;7.90;52.70;;;;;;6121184;29;20109;-68
2023/01/31 00:30:00;;;;;;;12.82;5.65;;;7.90;52.70;;;;;;6165153;28;20062;-66
2023/01/31 00:33:01;;;;;;;14.20;5.43;;;7.90;52.50;;;;;;6139998;29;20042;-65
2023/01/31 00:36:09;;;;;;;15.88;6.85;;;7.90;52.20;;;;;;6133661;29;20067;-67
2023/01/31 00:39:10;;;;;;;18.40;7.68;;;7.90;51.90;;;;;;6199510;28;20036;-67
2023/01/31 00:42:11;;;;;;;16.88;6.63;;;7.90;51.70;;;;;;6230766;28;20387;-66
2023/01/31 00:45:15;;;;;;;21.30;7.32;;;7.90;51.40;;;;;;6144690;29;20093;-67
2023/01/31 00:48:15;;;;;;;14.52;6.53;;;7.80;51.30;;;;;;6118140;29;20119;-65
2023/01/31 00:51:17;;;;;;;15.43;6.43;;;7.80;51.10;;;;;;6193331;28;20026;-69
2023/01/31 00:54:18;;;;;;;19.73;6.88;;;7.70;51.10;;;;;;6175931;28;20027;-67
2023/01/31 00:57:19;;;;;;;13.85;6.32;;;7.70;51.10;;;;;;6120574;28;20404;-67
2023/01/31 01:00:20;;;;;;;21.38;6.45;;;7.60;51.00;;;;;;6119654;29;20130;-67
2023/01/31 01:03:21;;;;;;;12.32;5.78;;;7.60;51.10;;;;;;6120951;28;20086;-67
2023/01/31 01:06:23;;;;;;;13.48;6.72;;;7.60;51.00;;;;;;6122136;29;20027;-67
2023/01/31 01:09:25;;;;;;;15.00;6.30;;;7.60;51.00;;;;;;6121213;28;20118;-66
2023/01/31 01:12:26;;;;;;;16.08;6.68;;;7.50;51.00;;;;;;6120704;29;20036;-65
2023/01/31 01:15:57;;;;;;;19.38;7.30;;;7.50;51.00;;;;;;6120734;29;20024;-65
2023/01/31 01:18:59;;;;;;;17.85;7.38;;;7.40;51.00;;;;;;6124221;29;20126;-67
2023/01/31 01:22:00;;;;;;;20.52;7.10;;;7.50;51.00;;;;;;6126375;28;20120;-65
2023/01/31 01:25:02;;;;;;;28.30;8.60;;;7.40;51.00;;;;;;6126082;29;20522;-66
2023/01/31 01:28:03;;;;;;;22.20;7.90;;;7.40;51.00;;;;;;6124333;29;20492;-66
2023/01/31 01:31:06;;;;;;;20.27;7.07;;;7.40;51.00;;;;;;6125931;29;20063;-66
2023/01/31 01:34:12;;;;;;;18.92;7.00;;;7.40;51.00;;;;;;6112017;29;20038;-65
2023/01/31 01:37:18;;;;;;;13.50;7.07;;;7.40;51.00;;;;;;6134189;28;20031;-65
2023/01/31 01:40:20;;;;;;;20.25;7.40;;;7.40;51.00;;;;;;6125680;29;20392;-67
2023/01/31 01:43:37;;;;;;;19.85;6.57;;;7.40;51.00;;;;;;6108640;28;20491;-68
2023/01/31 01:46:42;;;;;;;20.70;8.27;;;7.40;51.00;;;;;;6116489;28;20043;-65
2023/01/31 01:49:48;;;;;;;14.73;6.45;;;7.40;51.00;;;;;;6120749;28;20476;-68
2023/01/31 01:53:19;;;;;;;15.30;6.80;;;7.40;51.00;;;;;;6124315;28;20071;-66
2023/01/31 01:56:32;;;;;;;18.65;7.85;;;7.40;51.00;;;;;;6125671;29;20042;-65
2023/01/31 01:59:42;;;;;;;16.48;6.80;;;7.30;51.00;;;;;;6123661;28;20446;-67
2023/01/31 02:02:45;;;;;;;21.75;8.07;;;7.30;51.00;;;;;;6124054;29;20374;-66
2023/01/31 02:05:48;;;;;;;17.88;7.82;;;7.30;51.00;;;;;;6124032;29;20032;-67
2023/01/31 02:08:50;;;;;;;16.23;7.28;;;7.20;51.00;;;;;;6118217;28;20028;-67
2023/01/31 02:11:51;;;;;;;18.65;7.68;;;7.20;51.10;;;;;;6101819;28;20032;-66
2023/01/31 02:14:55;;;;;;;16.52;7.43;;;7.20;51.10;;;;;;6108716;29;20028;-66
2023/01/31 02:17:56;;;;;;;20.80;7.72;;;7.20;51.10;;;;;;6125061;29;20028;-67
2023/01/31 02:21:18;;;;;;;16.70;7.18;;;7.20;51.10;;;;;;6133340;29;20395;-66
2023/01/31 02:24:28;;;;;;;26.88;8.82;;;7.20;51.20;;;;;;6147525;28;20500;-66
2023/01/31 02:28:02;;;;;;;20.15;8.88;;;7.20;51.20;;;;;;6146936;28;20070;-67
2023/01/31 02:31:55;;;;;;;17.10;7.72;;;7.10;51.20;;;;;;6124578;28;20028;-65
2023/01/31 02:35:10;;;;;;;15.95;8.05;;;7.00;51.10;;;;;;6196621;28;20072;-66
2023/01/31 02:38:16;;;;;;;17.92;8.20;;;7.00;51.20;;;;;;6180217;28;20038;-65
2023/01/31 02:41:29;;;;;;;25.85;9.13;;;7.00;51.30;;;;;;6180009;28;20034;-65
2023/01/31 02:45:00;;;;;;;25.17;9.35;;;7.00;51.30;;;;;;6180742;28;20042;-67
2023/01/31 02:48:11;;;;;;;24.70;8.45;;;7.00;51.30;;;;;;6176829;28;20405;-67
2023/01/31 02:51:25;;;;;;;20.10;7.78;;;7.00;51.20;;;;;;6157025;28;20348;-66
2023/01/31 02:56:13;;;;;;;23.27;8.40;;;6.90;51.20;;;;;;6140958;28;20400;-65
2023/01/31 02:57:51;;;;;;;22.02;9.45;;;6.90;51.20;;;;;;6156381;28;20042;-67
2023/01/31 03:00:57;;;;;;;21.00;8.50;;;6.90;51.30;;;;;;6181116;28;20030;-65
2023/01/31 03:04:04;;;;;;;30.20;9.77;;;6.90;51.30;;;;;;6179800;28;20038;-67
2023/01/31 03:07:15;;;;;;;23.17;8.82;;;6.90;51.20;;;;;;6179082;28;20117;-66
2023/01/31 03:10:39;;;;;;;22.73;8.73;;;6.90;51.30;;;;;;6127856;28;20063;-66
2023/01/31 03:13:50;;;;;;;21.10;8.63;;;6.90;51.30;;;;;;6099343;28;20079;-69
2023/01/31 03:20:19;;;;;;;22.92;9.10;;;6.80;51.30;;;;;;6113686;29;20036;-66
2023/01/31 03:23:25;;;;;;;21.13;9.20;;;6.90;51.30;;;;;;6124026;29;20114;-66
2023/01/31 03:26:27;;;;;;;18.13;7.78;;;6.80;51.30;;;;;;6122572;28;20122;-65
2023/01/31 03:29:33;;;;;;;21.50;8.52;;;6.80;51.40;;;;;;6122364;29;20114;-67
2023/01/31 03:32:47;;;;;;;23.58;9.35;;;6.80;51.40;;;;;;6122356;29;20028;-67
2023/01/31 03:36:01;;;;;;;23.63;8.18;;;6.80;51.40;;;;;;6122391;28;20036;-68
2023/01/31 03:39:22;;;;;;;19.83;7.28;;;6.80;51.40;;;;;;6121989;29;20032;-65
2023/01/31 03:42:32;;;;;;;19.42;9.02;;;6.80;51.40;;;;;;6123290;29;20035;-65
2023/01/31 03:45:37;;;;;;;17.95;8.68;;;6.70;51.50;;;;;;6121787;28;20059;-65
2023/01/31 03:48:42;;;;;;;20.25;7.95;;;6.70;51.70;;;;;;6123044;29;20380;-68
2023/01/31 03:51:49;;;;;;;25.30;9.48;;;6.60;51.80;;;;;;6121965;28;20123;-65
2023/01/31 03:55:03;;;;;;;20.45;9.55;;;6.60;51.90;;;;;;6122249;28;20035;-66
2023/01/31 03:58:07;;;;;;;21.73;8.82;;;6.70;51.90;;;;;;6121653;28;20515;-67
2023/01/31 04:01:11;;;;;;;21.50;8.35;;;6.70;51.90;;;;;;6122035;28;20039;-67
2023/01/31 04:04:22;;;;;;;23.05;9.15;;;6.70;51.80;;;;;;6122350;28;20484;-67
2023/01/31 04:07:23;;;;;;;22.63;8.60;;;6.70;51.80;;;;;;6122510;28;20038;-67
2023/01/31 04:10:25;;;;;;;22.70;8.85;;;6.70;51.80;;;;;;6130393;28;20123;-65
2023/01/31 04:13:26;;;;;;;20.70;8.48;;;6.70;51.80;;;;;;6133896;29;20039;-64
2023/01/31 04:16:26;;;;;;;23.42;8.20;;;6.70;51.80;;;;;;6136433;28;20036;-65
2023/01/31 04:19:27;;;;;;;22.85;9.50;;;6.70;51.80;;;;;;6130010;29;20035;-65
2023/01/31 04:22:28;;;;;;;18.92;8.85;;;6.60;51.80;;;;;;6121764;28;20051;-67
2023/01/31 04:25:29;;;;;;;23.80;9.18;;;6.60;51.90;;;;;;6122775;29;20044;-67
2023/01/31 04:28:30;;;;;;;23.35;8.65;;;7.00;52.20;;;;;;6122528;28;20109;-66
2023/01/31 04:31:31;;;;;;;19.17;8.73;;;6.40;52.10;;;;;;6122068;28;20024;-67
2023/01/31 04:34:32;;;;;;;24.98;8.93;;;6.40;52.30;;;;;;6122688;29;20139;-67
2023/01/31 04:37:33;;;;;;;22.98;7.43;;;6.40;52.30;;;;;;6122418;29;20101;-66
2023/01/31 04:40:33;;;;;;;23.90;8.75;;;6.30;52.30;;;;;;6121985;29;20101;-68
2023/01/31 04:43:34;;;;;;;20.27;8.48;;;6.30;52.40;;;;;;6121138;29;20115;-65
2023/01/31 04:46:35;;;;;;;18.90;8.48;;;6.30;52.40;;;;;;6112988;28;20401;-67
2023/01/31 04:49:36;;;;;;;19.20;8.23;;;6.30;52.40;;;;;;6098420;29;20020;-68
2023/01/31 04:52:37;;;;;;;23.08;9.32;;;6.40;52.50;;;;;;6114761;29;20484;-67
2023/01/31 04:55:38;;;;;;;21.95;8.80;;;6.30;52.40;;;;;;6102979;29;20035;-66
2023/01/31 04:58:40;;;;;;;20.50;8.77;;;6.30;52.40;;;;;;6101080;28;20134;-66
2023/01/31 05:01:41;;;;;;;16.77;8.38;;;6.30;52.50;;;;;;6102996;29;20396;-67
2023/01/31 05:04:41;;;;;;;26.77;9.55;;;6.30;52.50;;;;;;6102978;29;20096;-66
2023/01/31 05:07:44;;;;;;;24.33;7.68;;;6.30;52.50;;;;;;6102758;29;20051;-66
2023/01/31 05:10:44;;;;;;;27.83;8.73;;;6.30;52.50;;;;;;6147230;28;20039;-66
2023/01/31 05:13:46;;;;;;;22.65;8.15;;;6.30;52.60;;;;;;6150048;28;20027;-67
2023/01/31 05:16:47;;;;;;;24.00;9.13;;;6.30;52.60;;;;;;6148458;29;20039;-68
2023/01/31 05:19:49;;;;;;;27.30;9.98;;;6.30;52.60;;;;;;6149553;28;20038;-67
2023/01/31 05:22:49;;;;;;;21.85;8.45;;;6.30;52.70;;;;;;6148592;29;20474;-66
2023/01/31 05:25:50;;;;;;;24.35;8.18;;;6.30;52.70;;;;;;6149593;29;20038;-66
2023/01/31 05:28:51;;;;;;;22.83;9.98;;;6.30;52.60;;;;;;6149267;28;20153;-65
2023/01/31 05:31:55;;;;;;;26.48;9.57;;;6.30;52.60;;;;;;6149490;29;20031;-67
2023/01/31 05:34:56;;;;;;;27.25;10.15;;;6.20;52.70;;;;;;6142128;29;20122;-67
2023/01/31 05:37:57;;;;;;;17.38;8.07;;;6.20;52.70;;;;;;6125288;29;20089;-66
2023/01/31 05:40:58;;;;;;;23.00;8.18;;;6.20;52.80;;;;;;6125526;28;20063;-66
2023/01/31 05:43:59;;;;;;;22.27;9.27;;;6.10;52.80;;;;;;6125275;29;20476;-65
2023/01/31 05:47:00;;;;;;;25.05;9.38;;;6.10;52.90;;;;;;6125216;28;20036;-66
2023/01/31 05:50:01;;;;;;;17.42;7.68;;;6.10;52.90;;;;;;6123952;29;20032;-64
2023/01/31 05:53:02;;;;;;;27.17;8.82;;;6.10;52.90;;;;;;6124267;28;20042;-64
2023/01/31 05:56:03;;;;;;;22.65;9.68;;;6.20;53.00;;;;;;6124070;29;20047;-65
2023/01/31 05:59:03;;;;;;;19.25;7.80;;;6.10;52.90;;;;;;6123808;29;20043;-65
2023/01/31 06:02:04;;;;;;;25.90;9.48;;;6.10;53.00;;;;;;6124040;29;20072;-65
2023/01/31 06:05:07;;;;;;;19.65;8.82;;;6.10;52.90;;;;;;6125416;29;20059;-65
2023/01/31 06:08:09;;;;;;;21.52;8.60;;;6.10;53.00;;;;;;6125311;29;20051;-66
2023/01/31 06:11:11;;;;;;;21.58;7.97;;;6.10;53.10;;;;;;6124024;29;20117;-65
2023/01/31 06:14:12;;;;;;;19.67;8.32;;;6.10;53.20;;;;;;6151520;28;20601;-66
2023/01/31 06:17:13;;;;;;;25.73;8.43;;;6.10;53.20;;;;;;6214245;28;20056;-66
2023/01/31 06:20:14;;;;;;;22.48;9.93;;;6.00;53.20;;;;;;6249475;28;20144;-67
2023/01/31 06:23:15;;;;;;;18.98;9.07;;;6.00;53.20;;;;;;6249807;28;20033;-65
2023/01/31 06:26:16;;;;;;;24.60;9.50;;;6.00;53.30;;;;;;6249571;28;20025;-65
2023/01/31 06:29:17;;;;;;;28.38;9.48;;;6.00;53.40;;;;;;6242444;28;20032;-66
2023/01/31 06:32:18;;;;;;;21.05;10.45;;;5.90;53.50;;;;;;6124790;28;20055;-65
2023/01/31 06:35:18;;;;;;;34.08;8.70;;;5.90;53.50;;;;;;6123537;28;20047;-67
2023/01/31 06:38:19;;;;;;;27.25;9.52;;;5.90;53.50;;;;;;6123076;29;20039;-66
2023/01/31 06:41:20;;;;;;;20.50;8.73;;;6.00;53.50;;;;;;6124952;29;20034;-66
2023/01/31 06:44:21;;;;;;;25.05;9.60;;;6.00;53.50;;;;;;6127761;29;20047;-66
2023/01/31 06:47:22;;;;;;;21.17;8.23;;;6.00;53.50;;;;;;6133988;28;20036;-67
2023/01/31 06:50:23;;;;;;;19.83;9.10;;;6.00;53.50;;;;;;6123522;29;20028;-67
2023/01/31 06:53:24;;;;;;;23.48;8.30;;;6.00;53.50;;;;;;6124438;28;20034;-65
2023/01/31 06:56:25;;;;;;;23.88;9.35;;;6.10;53.50;;;;;;6124821;29;20036;-67
2023/01/31 06:59:26;;;;;;;23.05;9.77;;;6.10;53.40;;;;;;6122657;28;20048;-68
2023/01/31 07:02:26;;;;;;;21.77;8.93;;;6.20;53.40;;;;;;6124281;29;20121;-66
2023/01/31 07:05:27;;;;;;;22.70;8.48;;;6.20;53.30;;;;;;6122858;29;20118;-70
2023/01/31 07:08:29;;;;;;;18.23;7.90;;;6.20;53.20;;;;;;6122601;29;20082;-69
2023/01/31 07:11:30;;;;;;;30.40;10.60;;;6.20;53.20;;;;;;6123928;28;20063;-66
2023/01/31 07:14:31;;;;;;;16.17;8.57;;;6.20;53.20;;;;;;6122414;29;20038;-65
2023/01/31 07:17:32;;;;;;;28.10;10.25;;;6.20;53.20;;;;;;6123474;29;20028;-68
2023/01/31 07:20:33;;;;;;;19.15;8.05;;;6.10;53.10;;;;;;6124096;29;20440;-67
2023/01/31 07:23:34;;;;;;;22.08;8.15;;;6.10;53.30;;;;;;6123652;29;20031;-67
2023/01/31 07:26:35;;;;;;;24.85;8.68;;;6.10;53.30;;;;;;6123523;28;20318;-67
2023/01/31 07:29:35;;;;;;;22.88;8.15;;;6.10;53.30;;;;;;6122169;28;20039;-67
2023/01/31 07:32:36;;;;;;;24.25;9.30;;;6.90;53.70;;;;;;6123914;28;20448;-65
2023/01/31 07:35:37;;;;;;;26.73;9.52;;;6.20;53.30;;;;;;6123444;29;20488;-66
2023/01/31 07:38:38;;;;;;;20.17;8.30;;;6.20;53.30;;;;;;6122496;29;20468;-68
2023/01/31 07:41:39;;;;;;;41.20;10.18;;;6.10;53.30;;;;;;6123849;28;20042;-64
2023/01/31 07:44:41;;;;;;;20.58;9.23;;;6.10;53.40;;;;;;6122684;29;20059;-66
2023/01/31 07:47:42;;;;;;;38.38;9.63;;;6.10;53.40;;;;;;6122985;29;20072;-68
2023/01/31 07:50:43;;;;;;;20.02;9.10;;;6.20;53.40;;;;;;6122854;29;20035;-66
2023/01/31 07:53:43;;;;;;;26.15;10.30;;;6.20;53.30;;;;;;6121806;28;20035;-67
2023/01/31 07:56:44;;;;;;;26.33;9.95;;;6.20;53.30;;;;;;6123217;29;20170;-66
2023/01/31 07:59:45;;;;;;;23.38;9.48;;;6.20;53.30;;;;;;6123083;29;20046;-67
2023/01/31 08:06:10;;;;;;;33.63;10.38;;;6.10;53.30;;;;;;6123271;29;20035;-66
2023/01/31 08:09:12;;;;;;;25.83;10.02;;;6.10;53.40;;;;;;6122932;28;20028;-66
2023/01/31 08:12:12;;;;;;;26.52;11.10;;;6.00;53.50;;;;;;6122766;29;20016;-68
2023/01/31 08:15:13;;;;;;;24.50;9.05;;;6.00;53.50;;;;;;6123782;29;20080;-67
2023/01/31 08:18:14;;;;;;;24.05;10.32;;;6.00;53.50;;;;;;6124419;29;20031;-65
2023/01/31 08:21:15;;;;;;;23.55;10.02;;;6.10;53.70;;;;;;6123533;29;20484;-66
2023/01/31 08:24:16;;;;;;;22.63;9.02;;;6.10;53.60;;;;;;6122521;28;20370;-66
2023/01/31 08:27:17;;;;;;;23.48;8.35;;;6.10;53.60;;;;;;6122483;28;20032;-66
2023/01/31 08:30:18;;;;;;;29.65;9.75;;;6.30;53.50;;;;;;6122446;29;20050;-66
2023/01/31 08:33:19;;;;;;;22.77;9.57;;;6.30;53.40;;;;;;6106462;28;20036;-66
2023/01/31 08:36:22;;;;;;;24.42;10.60;;;6.30;53.30;;;;;;6146421;28;20029;-69
2023/01/31 08:39:23;;;;;;;35.15;9.93;;;6.40;53.30;;;;;;6248912;28;20025;-65
2023/01/31 08:42:24;;;;;;;24.90;9.85;;;6.50;53.30;;;;;;6247783;28;20544;-67
2023/01/31 08:45:26;;;;;;;19.40;8.85;;;6.60;53.00;;;;;;6246171;28;20053;-67
2023/01/31 08:48:27;;;;;;;28.00;10.82;;;6.70;52.80;;;;;;6122264;29;20032;-65
2023/01/31 08:51:28;;;;;;;32.65;11.38;;;6.80;52.60;;;;;;6122475;29;20038;-68
2023/01/31 08:54:29;;;;;;;23.65;8.52;;;6.80;52.50;;;;;;6123442;29;20036;-66
2023/01/31 08:57:29;;;;;;;24.33;8.88;;;6.90;52.40;;;;;;6122923;29;20059;-67
2023/01/31 09:00:31;;;;;;;18.85;7.97;;;6.90;52.30;;;;;;6122907;28;20372;-65
2023/01/31 09:03:32;;;;;;;26.02;9.90;;;6.90;52.20;;;;;;6123818;29;20119;-66
2023/01/31 09:06:33;;;;;;;25.75;9.57;;;6.90;52.10;;;;;;6124322;29;20185;-67
2023/01/31 09:09:34;;;;;;;29.48;9.85;;;6.90;52.00;;;;;;6123921;29;20443;-65
2023/01/31 09:12:35;;;;;;;21.95;10.18;;;6.80;51.90;;;;;;6123844;29;20457;-66
2023/01/31 09:15:36;;;;;;;23.45;9.55;;;6.80;52.10;;;;;;6124230;29;20435;-67
2023/01/31 09:18:38;;;;;;;23.75;9.13;;;6.80;52.10;;;;;;6121691;29;20035;-67
2023/01/31 09:21:39;;;;;;;31.90;11.55;;;6.80;52.20;;;;;;6129680;29;20135;-66
2023/01/31 09:24:40;;;;;;;25.30;9.93;;;6.90;52.20;;;;;;6123212;29;20035;-66
2023/01/31 09:27:41;;;;;;;28.95;11.82;;;6.90;52.20;;;;;;6120262;29;20040;-66
2023/01/31 09:30:42;;;;;;;28.08;11.50;;;7.10;52.20;;;;;;6122227;29;20032;-67
2023/01/31 09:33:43;;;;;;;24.63;9.73;;;7.00;52.00;;;;;;6122557;29;20085;-66
2023/01/31 09:36:44;;;;;;;32.55;11.63;;;7.20;52.00;;;;;;6122322;29;20051;-66
2023/01/31 09:39:46;;;;;;;31.42;10.45;;;7.30;51.80;;;;;;6123309;29;20038;-67
2023/01/31 09:42:49;;;;;;;30.90;11.32;;;7.40;51.60;;;;;;6125176;29;20103;-66
2023/01/31 09:45:53;;;;;;;23.23;10.55;;;7.50;51.30;;;;;;6124915;29;20448;-65
2023/01/31 09:48:57;;;;;;;25.10;9.30;;;7.50;51.20;;;;;;6125599;29;20118;-66
2023/01/31 09:52:00;;;;;;;20.75;10.00;;;7.60;51.20;;;;;;6124562;29;20035;-68
2023/01/31 09:55:01;;;;;;;36.08;11.15;;;7.70;51.10;;;;;;6124343;29;20031;-65
2023/01/31 09:58:17;;;;;;;35.30;10.73;;;7.80;51.00;;;;;;6123139;29;20457;-66
2023/01/31 10:01:37;;;;;;;27.10;11.00;;;7.90;50.80;;;;;;6125294;29;20032;-67
2023/01/31 10:05:20;;;;;;;24.58;10.88;;;8.00;50.60;;;;;;6124079;29;20039;-67
2023/01/31 10:08:41;;;;;;;21.63;9.07;;;8.00;50.60;;;;;;6110392;29;20034;-68
2023/01/31 10:11:47;;;;;;;27.30;9.13;;;8.10;50.40;;;;;;6108055;29;20083;-68
2023/01/31 10:15:09;;;;;;;30.35;10.23;;;8.20;50.30;;;;;;6108075;29;20056;-68
2023/01/31 10:18:20;;;;;;;25.40;11.07;;;8.30;50.20;;;;;;6125030;29;20035;-67
2023/01/31 10:21:27;;;;;;;22.20;9.77;;;8.30;50.10;;;;;;6124880;29;20085;-68
2023/01/31 10:24:42;;;;;;;22.80;9.13;;;8.30;49.80;;;;;;6125469;29;20040;-66
2023/01/31 10:27:49;;;;;;;29.85;8.95;;;8.40;49.70;;;;;;6123353;29;20039;-68
2023/01/31 10:30:49;;;;;;;27.40;9.07;;;8.30;49.60;;;;;;6123702;29;20036;-67
2023/01/31 10:34:03;;;;;;;20.98;8.70;;;8.30;49.50;;;;;;6123492;28;20058;-68
2023/01/31 10:37:36;;;;;;;21.45;8.48;;;8.30;49.50;;;;;;6124591;28;20028;-67
2023/01/31 10:40:41;;;;;;;15.57;7.72;;;8.30;49.60;;;;;;6124277;29;20365;-68
2023/01/31 10:43:50;;;;;;;18.27;8.90;;;8.40;49.70;;;;;;6124702;29;20024;-68
2023/01/31 10:46:55;;;;;;;20.80;9.13;;;8.60;49.50;;;;;;6135635;29;20068;-66
2023/01/31 10:49:56;;;;;;;20.58;8.32;;;8.60;49.10;;;;;;6146811;28;20062;-67
2023/01/31 10:53:05;;;;;;;23.73;10.77;;;8.70;48.90;;;;;;6148227;28;20023;-67
2023/01/31 10:56:15;;;;;;;17.20;8.77;;;8.80;48.80;;;;;;6147995;29;20035;-66
2023/01/31 10:59:32;;;;;;;28.08;10.13;;;9.00;48.60;;;;;;6147691;28;20390;-67
2023/01/31 11:02:33;;;;;;;39.78;13.20;;;9.10;48.30;;;;;;6146214;29;20444;-68
2023/01/31 11:05:39;;;;;;;26.13;11.60;;;9.20;48.20;;;;;;6146415;29;20028;-65
2023/01/31 11:08:57;;;;;;;27.38;10.15;;;9.40;47.90;;;;;;6147446;28;20036;-66
2023/01/31 11:12:00;;;;;;;33.00;12.45;;;9.50;47.40;;;;;;6145302;28;20538;-66
2023/01/31 11:15:13;;;;;;;27.88;10.50;;;9.70;47.10;;;;;;6124187;29;20032;-67
2023/01/31 11:18:27;;;;;;;29.02;11.05;;;9.90;46.90;;;;;;6122407;28;20059;-66
2023/01/31 11:21:33;;;;;;;23.13;10.07;;;10.20;47.10;;;;;;6107529;29;20066;-65
2023/01/31 11:24:37;;;;;;;33.33;11.30;;;10.50;46.30;;;;;;6122631;29;20038;-67
2023/01/31 11:27:42;;;;;;;35.75;13.73;;;11.00;45.70;;;;;;6122613;29;20066;-67
2023/01/31 11:30:49;;;;;;;32.63;10.88;;;11.50;44.90;;;;;;6122225;28;20038;-65
2023/01/31 11:33:59;;;;;;;22.65;9.98;;;12.00;43.90;;;;;;6122893;29;20477;-66
2023/01/31 11:37:15;;;;;;;23.35;10.93;;;12.50;43.80;;;;;;6174991;28;20032;-67
2023/01/31 11:40:21;;;;;;;22.13;8.90;;;13.00;41.90;;;;;;6246115;28;20030;-65
2023/01/31 11:43:25;;;;;;;28.23;11.73;;;13.40;41.30;;;;;;6175693;28;20032;-67
2023/01/31 11:46:26;;;;;;;33.40;12.52;;;13.80;40.20;;;;;;6122231;29;20115;-65
2023/01/31 11:49:34;;;;;;;44.63;14.40;;;14.20;39.40;;;;;;6123194;29;20031;-66
2023/01/31 11:52:38;;;;;;;37.38;13.05;;;14.50;39.50;;;;;;6123531;29;20451;-65
2023/01/31 11:55:41;;;;;;;39.00;10.90;;;14.80;38.90;;;;;;6122582;29;20114;-65
2023/01/31 11:58:44;;;;;;;29.98;11.18;;;15.00;37.90;;;;;;6124154;29;20028;-67
2023/01/31 12:01:53;;;;;;;30.10;10.50;;;15.00;37.10;;;;;;6129243;29;20031;-65
2023/01/31 12:04:54;;;;;;;26.75;11.23;;;15.10;37.40;;;;;;6122886;29;20037;-66
2023/01/31 12:07:59;;;;;;;23.20;10.55;;;15.40;37.50;;;;;;6122222;29;20502;-66
2023/01/31 12:11:04;;;;;;;23.67;9.52;;;15.80;36.40;;;;;;6123105;29;20364;-67
2023/01/31 12:14:06;;;;;;;22.83;9.80;;;15.80;36.20;;;;;;6121995;29;20495;-66
2023/01/31 12:17:14;;;;;;;19.90;8.38;;;15.60;36.50;;;;;;6122719;28;20040;-67
2023/01/31 12:20:40;;;;;;;22.73;10.10;;;15.30;36.90;;;;;;6121530;29;20480;-66
2023/01/31 12:23:53;;;;;;;23.40;9.68;;;15.00;37.20;;;;;;6123085;29;20484;-67
2023/01/31 12:26:58;;;;;;;24.83;10.18;;;14.50;37.50;;;;;;6122881;28;20031;-67
2023/01/31 12:30:10;;;;;;;24.20;8.60;;;14.10;38.00;;;;;;6123016;29;20032;-66
2023/01/31 12:33:20;;;;;;;36.90;14.30;;;13.70;38.80;;;;;;6122979;29;20086;-66
2023/01/31 12:37:11;;;;;;;24.73;9.88;;;13.40;39.20;;;;;;6142866;28;20689;-65
2023/01/31 12:40:32;;;;;;;19.05;8.35;;;13.10;39.60;;;;;;6182492;28;20038;-67
2023/01/31 12:43:52;;;;;;;21.23;9.35;;;12.90;40.00;;;;;;6154951;28;20503;-66
2023/01/31 12:46:59;;;;;;;31.70;9.98;;;12.70;40.30;;;;;;6182770;28;20034;-66
2023/01/31 12:50:12;;;;;;;29.77;10.00;;;12.60;40.60;;;;;;6194875;28;20142;-65
2023/01/31 12:53:48;;;;;;;22.17;8.52;;;12.50;40.90;;;;;;6179530;28;20138;-67
2023/01/31 12:57:17;;;;;;;17.40;6.82;;;12.40;41.00;;;;;;6162471;28;20077;-67
2023/01/31 13:00:39;;;;;;;17.92;7.65;;;12.30;41.20;;;;;;6194799;28;20473;-65
2023/01/31 13:03:56;;;;;;;15.75;6.70;;;12.20;41.40;;;;;;6182180;28;20075;-67
2023/01/31 13:07:25;;;;;;;15.95;5.90;;;12.10;41.50;;;;;;6196534;28;20406;-66
2023/01/31 13:10:35;;;;;;;12.20;6.00;;;12.00;41.60;;;;;;6147749;28;20071;-65
2023/01/31 13:13:50;;;;;;;13.40;5.30;;;11.80;41.80;;;;;;6099754;29;20032;-67
2023/01/31 13:16:59;;;;;;;20.80;6.43;;;11.80;42.00;;;;;;6102853;28;20516;-66
2023/01/31 13:20:23;;;;;;;15.02;6.55;;;11.80;42.10;;;;;;6102943;28;20036;-67
2023/01/31 13:23:31;;;;;;;11.15;5.72;;;11.70;42.20;;;;;;6102333;28;20490;-67
2023/01/31 13:26:37;;;;;;;;;;;11.70;42.40;;;;;;6102990;29;20040;-66
2023/01/31 13:29:51;;;;;;;14.93;5.53;;;11.70;42.30;;;;;;6183556;28;19918;-65
2023/01/31 13:32:55;;;;;;;10.43;5.88;;;11.70;42.30;;;;;;6101093;29;20540;-67
2023/01/31 13:36:12;;;;;;;13.20;6.32;;;11.70;42.40;;;;;;6116788;28;20036;-66
2023/01/31 13:39:39;;;;;;;21.55;6.03;;;11.80;42.60;;;;;;6123546;29;20032;-65
2023/01/31 13:42:40;;;;;;;12.88;5.30;;;11.70;42.70;;;;;;6131745;28;20067;-68
2023/01/31 13:45:47;;;;;;;14.40;6.28;;;11.70;42.70;;;;;;6125690;29;20031;-67
2023/01/31 13:48:57;;;;;;;17.08;5.47;;;11.70;42.70;;;;;;6124525;29;20070;-67
2023/01/31 13:52:05;;;;;;;14.43;6.13;;;11.80;42.70;;;;;;6125857;29;20028;-66
2023/01/31 13:55:20;;;;;;;22.17;7.78;;;11.90;42.80;;;;;;6124560;29;20063;-67
2023/01/31 13:58:26;;;;;;;16.02;5.63;;;11.90;42.80;;;;;;6125550;29;20474;-66
2023/01/31 14:01:33;;;;;;;13.52;5.25;;;11.90;42.80;;;;;;6123750;29;20028;-66
2023/01/31 14:04:36;;;;;;;11.43;5.38;;;12.00;42.80;;;;;;6122419;29;20038;-66
2023/01/31 14:07:37;;;;;;;9.93;4.50;;;12.00;42.80;;;;;;6123803;29;20031;-66
2023/01/31 14:10:42;;;;;;;13.63;4.95;;;12.00;42.90;;;;;;6123177;29;20024;-66
2023/01/31 14:13:48;;;;;;;9.43;4.93;;;12.00;42.90;;;;;;6123473;29;20024;-67
2023/01/31 14:16:49;;;;;;;11.75;4.97;;;12.00;43.00;;;;;;6123870;29;20396;-65
2023/01/31 14:19:50;;;;;;;8.35;4.57;;;12.00;43.00;;;;;;6122298;29;20047;-65
2023/01/31 14:23:29;;;;;;;7.97;4.05;;;12.10;43.00;;;;;;6122638;29;20060;-65
2023/01/31 14:26:39;;;;;;;9.30;4.20;;;12.10;42.90;;;;;;6122181;29;20469;-65
2023/01/31 14:29:42;;;;;;;10.10;5.13;;;12.20;43.00;;;;;;6123156;29;20028;-67
2023/01/31 14:32:48;;;;;;;17.17;5.78;;;12.30;42.70;;;;;;6123354;28;20027;-67
2023/01/31 14:36:23;;;;;;;19.40;6.13;;;12.40;42.50;;;;;;6122408;28;20035;-67
2023/01/31 14:39:32;;;;;;;14.75;6.35;;;12.50;42.30;;;;;;6105951;28;20023;-68
2023/01/31 14:42:54;;;;;;;14.38;5.80;;;12.60;42.10;;;;;;6122389;28;20032;-67
2023/01/31 14:46:10;;;;;;;15.32;5.97;;;12.60;42.00;;;;;;6122171;29;20042;-65
2023/01/31 14:49:11;;;;;;;13.90;5.93;;;12.60;42.00;;;;;;6106157;28;20182;-68
2023/01/31 14:52:27;;;;;;;13.10;6.55;;;12.60;41.90;;;;;;6123388;28;20036;-66
2023/01/31 14:55:46;;;;;;;14.75;5.15;;;12.60;41.90;;;;;;6130304;29;20027;-65
2023/01/31 14:58:47;;;;;;;9.47;4.67;;;12.60;41.90;;;;;;6081555;28;1269557;-66
2023/01/31 15:01:51;;;;;;;11.23;5.07;;;12.50;42.00;;;;;;6124752;29;20106;-68
2023/01/31 15:05:24;;;;;;;9.45;5.07;;;12.60;42.00;;;;;;6124125;29;20035;-67
2023/01/31 15:08:25;;;;;;;12.43;4.90;;;12.60;42.00;;;;;;6126538;28;20044;-66
2023/01/31 15:11:25;;;;;;;12.60;5.15;;;12.60;42.00;;;;;;6124222;29;20050;-66
2023/01/31 15:14:34;;;;;;;9.07;4.78;;;12.60;42.00;;;;;;6122583;28;20032;-66
2023/01/31 15:17:38;;;;;;;8.10;4.13;;;12.70;42.00;;;;;;6123339;29;20044;-66
2023/01/31 15:20:42;;;;;;;7.28;3.33;;;12.60;41.80;;;;;;6121665;29;20040;-67
2023/01/31 15:23:43;;;;;;;8.65;4.57;;;12.60;41.70;;;;;;6123697;29;20050;-67
2023/01/31 15:26:45;;;;;;;7.75;2.70;;;12.50;41.70;;;;;;6122740;29;20032;-70
2023/01/31 15:29:52;;;;;;;6.10;2.85;;;12.50;41.70;;;;;;6115904;28;20477;-66
2023/01/31 15:33:01;;;;;;;10.20;3.00;;;12.40;41.60;;;;;;6122406;29;20166;-67
2023/01/31 15:36:29;;;;;;;6.50;2.72;;;12.30;41.70;;;;;;6123135;28;20043;-66
2023/01/31 15:40:04;;;;;;;6.47;2.38;;;12.30;41.90;;;;;;6121388;28;20122;-67
2023/01/31 15:43:23;;;;;;;11.10;3.05;;;12.20;42.00;;;;;;6050053;29;20064;-66
2023/01/31 15:46:29;;;;;;;5.57;2.80;;;12.10;42.00;;;;;;6034422;29;20037;-67
2023/01/31 15:49:33;;;;;;;7.65;2.92;;;12.00;42.20;;;;;;6049403;29;20047;-67
2023/01/31 15:52:33;;;;;;;5.03;2.90;;;12.00;42.40;;;;;;6050430;29;20109;-70
2023/01/31 15:55:35;;;;;;;7.63;3.10;;;11.90;42.50;;;;;;6019292;29;20426;-66
2023/01/31 15:58:36;;;;;;;7.75;3.70;;;11.90;42.70;;;;;;6034786;29;20439;-66
2023/01/31 16:01:37;;;;;;;7.78;2.90;;;11.90;42.80;;;;;;6050210;29;20449;-65
2023/01/31 16:04:39;;;;;;;8.00;3.67;;;11.80;42.90;;;;;;6050459;28;20111;-67
2023/01/31 16:07:46;;;;;;;12.48;5.05;;;11.80;43.00;;;;;;6049542;29;20045;-67
2023/01/31 16:10:48;;;;;;;15.65;5.18;;;11.80;43.00;;;;;;6049880;29;20040;-66
2023/01/31 16:13:49;;;;;;;16.45;6.20;;;11.70;43.00;;;;;;6034513;29;20481;-66